createdAt,value
2017-12-08T00:00:40.094Z,0.00
2017-12-08T00:01:40.088Z,0.00
2017-12-08T00:02:40.083Z,0.00
2017-12-08T00:03:40.077Z,0.00
2017-12-08T00:04:40.074Z,0.00
2017-12-08T00:05:40.067Z,0.00
2017-12-08T00:06:40.063Z,0.00
2017-12-08T00:07:40.058Z,0.00
2017-12-08T00:08:40.053Z,0.00
2017-12-08T00:09:40.048Z,0.00
2017-12-08T00:10:40.042Z,0.00
2017-12-08T00:11:40.038Z,0.00
2017-12-08T00:12:40.033Z,0.00
2017-12-08T00:13:40.027Z,0.00
2017-12-08T00:14:40.023Z,0.00
2017-12-08T00:15:40.018Z,0.00
2017-12-08T00:16:40.013Z,0.00
2017-12-08T00:17:40.007Z,0.00
2017-12-08T00:18:40.003Z,0.00
2017-12-08T00:19:39.998Z,0.00
2017-12-08T00:20:39.993Z,0.00
2017-12-08T00:21:39.987Z,0.00
2017-12-08T00:22:39.983Z,0.00
2017-12-08T00:23:39.978Z,0.00
2017-12-08T00:24:39.973Z,0.00
2017-12-08T00:25:40.067Z,0.00
2017-12-08T00:26:39.963Z,0.00
2017-12-08T00:27:39.964Z,0.00
2017-12-08T00:28:39.954Z,0.00
2017-12-08T00:29:39.948Z,0.00
2017-12-08T00:30:39.943Z,0.00
2017-12-08T00:31:39.938Z,0.00
2017-12-08T00:32:39.933Z,0.00
2017-12-08T00:33:39.927Z,0.00
2017-12-08T00:34:39.923Z,0.00
2017-12-08T00:35:39.918Z,0.00
2017-12-08T00:36:39.914Z,0.00
2017-12-08T00:37:39.908Z,0.00
2017-12-08T00:38:39.903Z,0.00
2017-12-08T00:39:39.898Z,0.00
2017-12-08T00:40:39.894Z,0.00
2017-12-08T00:41:39.888Z,0.00
2017-12-08T00:42:39.888Z,0.00
2017-12-08T00:43:39.879Z,0.00
2017-12-08T00:44:39.874Z,0.00
2017-12-08T00:45:39.868Z,0.00
2017-12-08T00:46:39.864Z,0.00
2017-12-08T00:47:39.860Z,0.00
2017-12-08T00:48:39.854Z,0.00
2017-12-08T00:49:39.849Z,0.00
2017-12-08T00:50:39.844Z,0.00
2017-12-08T00:51:39.840Z,0.00
2017-12-08T00:52:39.835Z,0.00
2017-12-08T00:53:39.846Z,0.00
2017-12-08T00:54:39.825Z,0.00
2017-12-08T00:55:39.824Z,0.00
2017-12-08T00:56:39.816Z,0.00
2017-12-08T00:57:39.810Z,0.00
2017-12-08T00:58:39.805Z,0.00
2017-12-08T00:59:39.801Z,0.00
2017-12-08T01:00:39.797Z,0.00
2017-12-08T01:01:39.791Z,0.00
2017-12-08T01:02:39.786Z,0.00
2017-12-08T01:03:39.782Z,0.00
2017-12-08T01:04:39.778Z,0.00
2017-12-08T01:05:39.772Z,0.00
2017-12-08T01:06:39.767Z,0.00
2017-12-08T01:07:39.763Z,0.00
2017-12-08T01:08:39.758Z,0.00
2017-12-08T01:09:39.753Z,0.00
2017-12-08T01:10:39.748Z,0.00
2017-12-08T01:11:39.743Z,0.00
2017-12-08T01:12:39.739Z,0.00
2017-12-08T01:13:39.736Z,0.00
2017-12-08T01:14:39.729Z,0.00
2017-12-08T01:15:39.725Z,0.00
2017-12-08T01:16:39.720Z,0.00
2017-12-08T01:17:39.715Z,0.00
2017-12-08T01:18:39.710Z,0.00
2017-12-08T01:19:39.707Z,0.00
2017-12-08T01:20:39.702Z,0.00
2017-12-08T01:21:39.696Z,0.00
2017-12-08T01:22:39.691Z,0.00
2017-12-08T01:23:39.687Z,0.00
2017-12-08T01:24:39.683Z,0.00
2017-12-08T01:25:39.677Z,0.00
2017-12-08T01:26:39.673Z,0.00
2017-12-08T01:27:40.624Z,0.00
2017-12-08T01:28:40.228Z,0.00
2017-12-08T01:29:39.943Z,0.00
2017-12-08T01:30:40.022Z,0.00
2017-12-08T01:32:39.644Z,0.00
2017-12-08T01:33:39.640Z,0.00
2017-12-08T01:34:41.320Z,0.00
2017-12-08T01:35:40.612Z,0.00
2017-12-08T01:36:39.630Z,0.00
2017-12-08T01:37:39.994Z,0.00
2017-12-08T01:38:39.619Z,0.00
2017-12-08T01:39:39.628Z,0.00
2017-12-08T01:40:39.607Z,0.00
2017-12-08T01:41:39.618Z,0.00
2017-12-08T01:42:39.612Z,0.00
2017-12-08T01:43:39.609Z,0.00
2017-12-08T01:44:39.605Z,0.00
2017-12-08T01:45:39.583Z,0.00
2017-12-08T01:46:39.579Z,0.00
2017-12-08T01:47:39.591Z,0.00
2017-12-08T01:48:39.589Z,0.00
2017-12-08T01:49:39.581Z,0.00
2017-12-08T01:50:39.577Z,0.00
2017-12-08T01:51:39.574Z,0.00
2017-12-08T01:52:39.570Z,0.00
2017-12-08T01:53:39.564Z,0.00
2017-12-08T01:54:39.557Z,0.00
2017-12-08T01:55:39.555Z,0.00
2017-12-08T01:56:39.550Z,0.00
2017-12-08T01:57:39.545Z,0.00
2017-12-08T01:58:39.540Z,0.00
2017-12-08T01:59:39.536Z,0.00
2017-12-08T02:00:39.532Z,0.00
2017-12-08T02:01:39.524Z,0.00
2017-12-08T02:02:39.519Z,0.00
2017-12-08T02:03:39.517Z,0.00
2017-12-08T02:04:39.510Z,0.00
2017-12-08T02:05:39.507Z,0.00
2017-12-08T02:06:39.500Z,0.00
2017-12-08T02:07:39.496Z,0.00
2017-12-08T02:08:39.492Z,0.00
2017-12-08T02:09:39.487Z,0.00
2017-12-08T02:10:39.480Z,0.00
2017-12-08T02:11:39.477Z,0.00
2017-12-08T02:12:39.473Z,0.00
2017-12-08T02:13:39.467Z,0.00
2017-12-08T02:14:39.462Z,0.00
2017-12-08T02:15:39.457Z,0.00
2017-12-08T02:16:39.453Z,0.00
2017-12-08T02:17:39.447Z,0.00
2017-12-08T02:18:39.443Z,0.00
2017-12-08T02:19:39.443Z,0.00
2017-12-08T02:20:39.432Z,0.00
2017-12-08T02:21:39.431Z,0.00
2017-12-08T02:22:39.422Z,0.00
2017-12-08T02:23:39.404Z,0.00
2017-12-08T02:24:39.394Z,0.00
2017-12-08T02:25:39.388Z,0.00
2017-12-08T02:26:39.384Z,0.00
2017-12-08T02:27:39.380Z,0.00
2017-12-08T02:28:39.379Z,0.00
2017-12-08T02:29:39.369Z,0.00
2017-12-08T02:30:39.383Z,0.00
2017-12-08T02:31:39.359Z,0.00
2017-12-08T02:32:39.374Z,0.00
2017-12-08T02:33:39.349Z,0.00
2017-12-08T02:34:39.363Z,0.00
2017-12-08T02:35:39.362Z,0.00
2017-12-08T02:36:39.355Z,0.00
2017-12-08T02:37:39.348Z,0.00
2017-12-08T02:38:39.325Z,0.00
2017-12-08T02:39:39.320Z,0.00
2017-12-08T02:40:39.334Z,0.00
2017-12-08T02:41:39.328Z,0.00
2017-12-08T02:42:39.305Z,0.00
2017-12-08T02:43:39.318Z,0.00
2017-12-08T02:44:39.315Z,0.00
2017-12-08T02:45:39.309Z,0.00
2017-12-08T02:46:39.326Z,0.00
2017-12-08T02:47:39.284Z,0.00
2017-12-08T02:48:39.276Z,0.00
2017-12-08T02:49:39.286Z,0.00
2017-12-08T02:50:39.265Z,0.00
2017-12-08T02:51:39.278Z,0.00
2017-12-08T02:52:39.271Z,0.00
2017-12-08T02:53:39.251Z,0.00
2017-12-08T02:54:39.245Z,0.00
2017-12-08T02:55:39.240Z,0.00
2017-12-08T02:56:39.235Z,0.00
2017-12-08T02:57:39.247Z,0.00
2017-12-08T02:58:39.245Z,0.00
2017-12-08T02:59:39.236Z,0.00
2017-12-08T03:00:39.232Z,0.00
2017-12-08T03:01:39.226Z,0.00
2017-12-08T03:02:39.206Z,0.00
2017-12-08T03:03:39.201Z,0.00
2017-12-08T03:04:39.194Z,0.00
2017-12-08T03:05:39.204Z,0.00
2017-12-08T03:06:39.200Z,0.00
2017-12-08T03:07:39.196Z,0.00
2017-12-08T03:08:39.191Z,0.00
2017-12-08T03:09:39.185Z,0.00
2017-12-08T03:10:39.181Z,0.00
2017-12-08T03:11:39.159Z,0.00
2017-12-08T03:12:39.171Z,0.00
2017-12-08T03:13:39.165Z,0.00
2017-12-08T03:14:39.144Z,0.00
2017-12-08T03:15:39.156Z,0.00
2017-12-08T03:16:39.141Z,0.00
2017-12-08T03:17:39.129Z,0.00
2017-12-08T03:18:39.140Z,0.00
2017-12-08T03:19:39.119Z,0.00
2017-12-08T03:20:39.132Z,0.00
2017-12-08T03:21:39.125Z,0.00
2017-12-08T03:22:39.104Z,0.00
2017-12-08T03:23:39.099Z,0.00
2017-12-08T03:24:39.110Z,0.00
2017-12-08T03:25:39.088Z,0.00
2017-12-08T03:26:39.086Z,0.00
2017-12-08T03:27:39.080Z,0.00
2017-12-08T03:28:39.093Z,0.00
2017-12-08T03:29:39.084Z,0.00
2017-12-08T03:30:39.079Z,0.00
2017-12-08T03:31:39.074Z,0.00
2017-12-08T03:32:39.070Z,0.00
2017-12-08T03:33:39.047Z,0.00
2017-12-08T03:34:39.042Z,0.00
2017-12-08T03:35:39.054Z,0.00
2017-12-08T03:36:39.033Z,0.00
2017-12-08T03:37:39.043Z,0.00
2017-12-08T03:38:39.022Z,0.00
2017-12-08T03:39:39.016Z,0.00
2017-12-08T03:40:39.028Z,0.00
2017-12-08T03:41:39.006Z,0.00
2017-12-08T03:42:39.017Z,0.00
2017-12-08T03:43:38.997Z,0.00
2017-12-08T03:44:39.007Z,0.00
2017-12-08T03:45:39.001Z,0.00
2017-12-08T03:46:38.980Z,0.00
2017-12-08T03:47:38.991Z,0.00
2017-12-08T03:48:38.969Z,0.00
2017-12-08T03:49:38.980Z,0.00
2017-12-08T03:50:38.975Z,0.00
2017-12-08T03:51:38.954Z,0.00
2017-12-08T03:52:38.948Z,0.00
2017-12-08T03:53:38.943Z,0.00
2017-12-08T03:54:38.938Z,0.00
2017-12-08T03:55:38.937Z,0.00
2017-12-08T03:56:38.928Z,0.00
2017-12-08T03:57:38.922Z,0.00
2017-12-08T03:58:38.916Z,0.00
2017-12-08T03:59:38.912Z,0.00
2017-12-08T04:00:38.902Z,0.00
2017-12-08T04:01:38.900Z,0.00
2017-12-08T04:02:38.895Z,0.00
2017-12-08T04:03:38.884Z,0.00
2017-12-08T04:04:38.885Z,0.00
2017-12-08T04:05:38.878Z,0.00
2017-12-08T04:06:38.889Z,0.00
2017-12-08T04:07:38.979Z,0.00
2017-12-08T04:08:38.884Z,0.00
2017-12-08T04:09:38.873Z,0.00
2017-12-08T04:10:38.852Z,0.00
2017-12-08T04:11:38.849Z,0.00
2017-12-08T04:12:38.846Z,0.00
2017-12-08T04:13:38.837Z,0.00
2017-12-08T04:14:38.835Z,0.00
2017-12-08T04:15:38.826Z,0.00
2017-12-08T04:16:38.826Z,0.00
2017-12-08T04:17:38.832Z,0.00
2017-12-08T04:18:38.830Z,0.00
2017-12-08T04:19:38.822Z,0.00
2017-12-08T04:20:38.818Z,0.00
2017-12-08T04:21:38.799Z,0.00
2017-12-08T04:22:38.810Z,0.00
2017-12-08T04:23:38.784Z,0.00
2017-12-08T04:24:38.799Z,0.00
2017-12-08T04:25:38.769Z,0.00
2017-12-08T04:26:38.762Z,0.00
2017-12-08T04:27:38.758Z,0.00
2017-12-08T04:28:38.768Z,0.00
2017-12-08T04:29:38.757Z,0.00
2017-12-08T04:30:38.767Z,0.00
2017-12-08T04:31:38.758Z,0.00
2017-12-08T04:32:38.741Z,0.00
2017-12-08T04:33:38.735Z,0.00
2017-12-08T04:34:38.731Z,0.00
2017-12-08T04:35:38.736Z,0.00
2017-12-08T04:36:38.722Z,0.00
2017-12-08T04:37:38.720Z,0.00
2017-12-08T04:38:38.699Z,0.00
2017-12-08T04:39:38.720Z,0.00
2017-12-08T04:40:38.700Z,0.00
2017-12-08T04:41:38.711Z,0.00
2017-12-08T04:42:38.707Z,0.00
2017-12-08T04:43:38.675Z,0.00
2017-12-08T04:44:38.696Z,0.00
2017-12-08T04:45:38.690Z,0.00
2017-12-08T04:46:38.668Z,0.00
2017-12-08T04:47:38.665Z,0.00
2017-12-08T04:48:38.675Z,0.00
2017-12-08T04:49:38.670Z,0.00
2017-12-08T04:50:38.648Z,0.00
2017-12-08T04:51:38.665Z,0.00
2017-12-08T04:52:38.633Z,0.00
2017-12-08T04:53:38.649Z,0.00
2017-12-08T04:54:38.640Z,0.00
2017-12-08T04:55:38.739Z,0.00
2017-12-08T04:56:38.616Z,0.00
2017-12-08T04:57:38.606Z,0.00
2017-12-08T04:58:38.602Z,0.00
2017-12-08T04:59:38.615Z,0.00
2017-12-08T05:00:38.595Z,0.00
2017-12-08T05:01:38.604Z,0.00
2017-12-08T05:02:38.602Z,0.00
2017-12-08T05:03:38.575Z,0.00
2017-12-08T05:04:38.582Z,0.00
2017-12-08T05:05:38.565Z,0.00
2017-12-08T05:06:38.583Z,0.00
2017-12-08T05:07:38.559Z,0.00
2017-12-08T05:08:38.568Z,0.00
2017-12-08T05:09:38.566Z,0.00
2017-12-08T05:10:38.543Z,0.00
2017-12-08T05:11:38.538Z,0.00
2017-12-08T05:12:38.550Z,0.00
2017-12-08T05:13:38.527Z,0.00
2017-12-08T05:14:38.522Z,0.00
2017-12-08T05:15:38.517Z,0.00
2017-12-08T05:16:38.512Z,0.00
2017-12-08T05:17:38.500Z,0.00
2017-12-08T05:18:38.500Z,0.00
2017-12-08T05:19:38.496Z,0.00
2017-12-08T05:20:38.491Z,0.00
2017-12-08T05:21:38.484Z,0.00
2017-12-08T05:22:38.479Z,0.00
2017-12-08T05:23:38.474Z,0.00
2017-12-08T05:24:38.465Z,0.00
2017-12-08T05:25:38.559Z,0.00
2017-12-08T05:26:38.455Z,0.00
2017-12-08T05:27:38.454Z,0.00
2017-12-08T05:28:38.445Z,0.00
2017-12-08T05:29:38.438Z,0.00
2017-12-08T05:30:38.433Z,0.00
2017-12-08T05:31:38.533Z,0.00
2017-12-08T05:32:38.423Z,0.00
2017-12-08T05:33:38.422Z,0.00
2017-12-08T05:34:38.412Z,0.00
2017-12-08T05:35:38.407Z,0.00
2017-12-08T05:36:38.402Z,0.00
2017-12-08T05:37:38.415Z,0.00
2017-12-08T05:38:38.391Z,0.00
2017-12-08T05:39:38.386Z,0.00
2017-12-08T05:40:38.382Z,0.00
2017-12-08T05:41:38.402Z,0.00
2017-12-08T05:42:38.388Z,0.00
2017-12-08T05:43:38.365Z,0.00
2017-12-08T05:44:38.379Z,0.00
2017-12-08T05:45:38.355Z,0.00
2017-12-08T05:46:38.368Z,0.00
2017-12-08T05:47:38.363Z,0.00
2017-12-08T05:48:38.358Z,0.00
2017-12-08T05:49:38.434Z,0.00
2017-12-08T05:50:38.348Z,0.00
2017-12-08T05:51:38.324Z,0.00
2017-12-08T05:52:38.338Z,0.00
2017-12-08T05:53:38.314Z,0.00
2017-12-08T05:54:38.327Z,0.00
2017-12-08T05:55:38.303Z,0.00
2017-12-08T05:56:38.299Z,0.00
2017-12-08T05:57:38.311Z,0.00
2017-12-08T05:58:38.288Z,0.00
2017-12-08T05:59:38.283Z,0.00
2017-12-08T06:00:38.282Z,0.00
2017-12-08T06:01:38.290Z,0.00
2017-12-08T06:02:38.290Z,0.00
2017-12-08T06:03:38.268Z,0.00
2017-12-08T06:04:38.275Z,0.00
2017-12-08T06:05:38.254Z,0.00
2017-12-08T06:06:38.263Z,0.00
2017-12-08T06:07:38.245Z,0.00
2017-12-08T06:08:38.253Z,0.00
2017-12-08T06:09:38.229Z,0.00
2017-12-08T06:10:38.227Z,0.00
2017-12-08T06:11:38.238Z,0.00
2017-12-08T06:12:38.214Z,0.00
2017-12-08T06:13:38.213Z,0.00
2017-12-08T06:14:38.225Z,0.00
2017-12-08T06:15:38.220Z,0.00
2017-12-08T06:16:38.214Z,0.00
2017-12-08T06:17:38.205Z,0.00
2017-12-08T06:18:38.203Z,0.00
2017-12-08T06:19:38.280Z,0.00
2017-12-08T06:20:38.203Z,0.00
2017-12-08T06:21:38.165Z,0.00
2017-12-08T06:22:38.165Z,0.00
2017-12-08T06:23:38.174Z,0.00
2017-12-08T06:24:38.173Z,0.00
2017-12-08T06:25:38.164Z,0.00
2017-12-08T06:26:38.161Z,0.00
2017-12-08T06:27:38.153Z,0.00
2017-12-08T06:28:38.145Z,0.00
2017-12-08T06:29:38.136Z,0.00
2017-12-08T06:30:38.140Z,0.00
2017-12-08T06:31:38.136Z,0.00
2017-12-08T06:32:38.124Z,0.00
2017-12-08T06:33:38.121Z,0.00
2017-12-08T06:34:38.114Z,0.00
2017-12-08T06:35:38.114Z,0.00
2017-12-08T06:36:38.100Z,0.00
2017-12-08T06:37:38.103Z,0.00
2017-12-08T06:38:38.095Z,0.00
2017-12-08T06:39:38.084Z,0.00
2017-12-08T06:40:38.083Z,0.00
2017-12-08T06:41:38.079Z,0.00
2017-12-08T06:42:38.073Z,0.00
2017-12-08T06:43:38.072Z,0.00
2017-12-08T06:44:38.057Z,0.00
2017-12-08T06:45:38.057Z,0.00
2017-12-08T06:46:38.044Z,0.00
2017-12-08T06:47:38.051Z,0.00
2017-12-08T06:48:38.043Z,0.00
2017-12-08T06:49:38.037Z,0.00
2017-12-08T06:50:38.025Z,0.00
2017-12-08T06:51:38.022Z,0.00
2017-12-08T06:52:38.014Z,0.00
2017-12-08T06:53:38.017Z,0.00
2017-12-08T06:54:38.013Z,0.00
2017-12-08T06:55:38.098Z,0.00
2017-12-08T06:56:38.000Z,0.00
2017-12-08T06:57:37.987Z,0.00
2017-12-08T06:58:37.988Z,0.00
2017-12-08T06:59:37.983Z,0.00
2017-12-08T07:00:37.981Z,0.00
2017-12-08T07:01:37.975Z,0.00
2017-12-08T07:02:37.970Z,0.00
2017-12-08T07:03:37.956Z,0.00
2017-12-08T07:04:37.957Z,0.00
2017-12-08T07:05:37.951Z,0.00
2017-12-08T07:06:37.940Z,0.00
2017-12-08T07:07:37.935Z,0.00
2017-12-08T07:08:37.930Z,0.00
2017-12-08T07:09:37.924Z,0.00
2017-12-08T07:10:37.928Z,0.00
2017-12-08T07:11:37.914Z,0.00
2017-12-08T07:12:37.918Z,0.00
2017-12-08T07:13:37.903Z,0.00
2017-12-08T07:14:37.898Z,0.00
2017-12-08T07:15:37.900Z,0.00
2017-12-08T07:16:37.895Z,0.00
2017-12-08T07:17:37.889Z,0.00
2017-12-08T07:18:37.884Z,0.00
2017-12-08T07:19:37.865Z,0.00
2017-12-08T07:20:37.877Z,0.00
2017-12-08T07:21:37.871Z,0.00
2017-12-08T07:22:37.856Z,0.00
2017-12-08T07:23:37.840Z,0.00
2017-12-08T07:24:37.833Z,0.00
2017-12-08T07:25:37.825Z,0.00
2017-12-08T07:26:37.819Z,0.00
2017-12-08T07:27:37.824Z,0.00
2017-12-08T07:28:37.825Z,0.00
2017-12-08T07:29:37.820Z,0.00
2017-12-08T07:30:37.824Z,0.00
2017-12-08T07:31:37.820Z,0.00
2017-12-08T07:32:37.797Z,0.00
2017-12-08T07:33:37.782Z,0.00
2017-12-08T07:34:37.786Z,0.00
2017-12-08T07:35:37.787Z,0.00
2017-12-08T07:36:37.787Z,0.00
2017-12-08T07:37:37.760Z,0.00
2017-12-08T07:38:37.780Z,0.00
2017-12-08T07:39:37.750Z,0.00
2017-12-08T07:40:37.751Z,0.00
2017-12-08T07:41:37.755Z,0.00
2017-12-08T07:42:37.743Z,0.00
2017-12-08T07:43:37.744Z,0.00
2017-12-08T07:44:37.749Z,0.00
2017-12-08T07:45:37.743Z,0.00
2017-12-08T07:46:37.733Z,0.00
2017-12-08T07:47:37.723Z,0.00
2017-12-08T07:48:37.701Z,0.00
2017-12-08T07:49:37.709Z,0.00
2017-12-08T07:50:37.716Z,0.00
2017-12-08T07:51:37.707Z,0.00
2017-12-08T07:52:37.697Z,0.00
2017-12-08T07:53:37.696Z,0.00
2017-12-08T07:54:37.695Z,0.00
2017-12-08T07:55:37.676Z,0.00
2017-12-08T07:56:37.670Z,0.00
2017-12-08T07:57:37.654Z,0.00
2017-12-08T07:58:37.649Z,0.00
2017-12-08T07:59:37.669Z,0.00
2017-12-08T08:00:37.645Z,0.00
2017-12-08T08:01:37.658Z,0.00
2017-12-08T08:02:37.629Z,0.00
2017-12-08T08:03:37.632Z,0.00
2017-12-08T08:04:37.634Z,0.00
2017-12-08T08:05:37.612Z,0.00
2017-12-08T08:06:37.632Z,0.00
2017-12-08T08:07:37.602Z,0.00
2017-12-08T08:08:37.606Z,0.00
2017-12-08T08:09:37.616Z,0.00
2017-12-08T08:10:37.600Z,0.00
2017-12-08T08:11:37.586Z,0.00
2017-12-08T08:12:37.582Z,0.00
2017-12-08T08:13:37.580Z,0.00
2017-12-08T08:14:37.571Z,0.00
2017-12-08T08:15:37.564Z,0.00
2017-12-08T08:16:37.575Z,0.00
2017-12-08T08:17:37.573Z,0.00
2017-12-08T08:18:37.571Z,0.00
2017-12-08T08:19:37.563Z,0.00
2017-12-08T08:20:37.543Z,0.00
2017-12-08T08:21:37.539Z,0.00
2017-12-08T08:22:37.532Z,0.00
2017-12-08T08:23:37.523Z,0.00
2017-12-08T08:24:37.534Z,0.00
2017-12-08T08:25:37.627Z,0.00
2017-12-08T08:26:37.533Z,0.00
2017-12-08T08:27:37.524Z,0.00
2017-12-08T08:28:37.514Z,0.00
2017-12-08T08:29:37.507Z,0.00
2017-12-08T08:30:37.502Z,0.00
2017-12-08T08:31:37.499Z,0.00
2017-12-08T08:32:37.492Z,0.00
2017-12-08T08:33:37.487Z,0.00
2017-12-08T08:34:37.482Z,0.00
2017-12-08T08:35:37.480Z,0.00
2017-12-08T08:36:37.472Z,0.00
2017-12-08T08:37:37.466Z,0.00
2017-12-08T08:38:37.465Z,0.00
2017-12-08T08:39:37.455Z,0.00
2017-12-08T08:40:37.443Z,0.00
2017-12-08T08:41:37.434Z,0.00
2017-12-08T08:42:37.440Z,0.00
2017-12-08T08:43:37.419Z,0.00
2017-12-08T08:44:37.415Z,0.00
2017-12-08T08:45:37.408Z,0.00
2017-12-08T08:46:37.408Z,0.00
2017-12-08T08:47:37.398Z,0.00
2017-12-08T08:48:37.394Z,0.00
2017-12-08T08:49:37.405Z,0.00
2017-12-08T08:50:37.403Z,0.00
2017-12-08T08:51:37.395Z,0.00
2017-12-08T08:52:37.390Z,0.00
2017-12-08T08:53:37.368Z,0.00
2017-12-08T08:54:37.363Z,0.00
2017-12-08T08:55:37.358Z,0.00
2017-12-08T08:56:37.356Z,0.00
2017-12-08T08:57:37.367Z,0.00
2017-12-08T08:58:37.358Z,5.63
2017-12-08T08:59:37.337Z,5.63
2017-12-08T09:00:37.332Z,5.63
2017-12-08T09:01:37.427Z,5.63
2017-12-08T09:02:37.322Z,5.63
2017-12-08T09:03:37.336Z,5.63
2017-12-08T09:04:37.332Z,5.63
2017-12-08T09:05:37.322Z,5.63
2017-12-08T09:06:37.301Z,5.63
2017-12-08T09:07:37.300Z,5.63
2017-12-08T09:08:37.310Z,5.63
2017-12-08T09:09:37.290Z,5.63
2017-12-08T09:10:37.296Z,5.63
2017-12-08T09:11:37.276Z,0.00
2017-12-08T09:12:37.271Z,0.00
2017-12-08T09:13:37.282Z,0.00
2017-12-08T09:14:37.277Z,0.00
2017-12-08T09:15:37.260Z,0.00
2017-12-08T09:16:37.255Z,0.00
2017-12-08T09:17:37.264Z,0.00
2017-12-08T09:18:37.257Z,0.00
2017-12-08T09:19:37.251Z,0.00
2017-12-08T09:20:37.250Z,0.00
2017-12-08T09:21:37.241Z,0.00
2017-12-08T09:22:37.236Z,0.00
2017-12-08T09:23:37.215Z,0.00
2017-12-08T09:24:37.211Z,0.00
2017-12-08T09:25:37.208Z,0.00
2017-12-08T09:26:37.201Z,0.00
2017-12-08T09:27:37.213Z,0.00
2017-12-08T09:28:37.191Z,0.00
2017-12-08T09:29:37.205Z,0.00
2017-12-08T09:30:37.197Z,0.00
2017-12-08T09:31:37.177Z,0.00
2017-12-08T09:32:37.175Z,5.63
2017-12-08T09:33:37.170Z,5.63
2017-12-08T09:34:37.161Z,5.63
2017-12-08T09:35:37.157Z,5.63
2017-12-08T09:36:37.156Z,5.63
2017-12-08T09:37:37.163Z,5.63
2017-12-08T09:38:37.141Z,5.63
2017-12-08T09:39:37.156Z,0.00
2017-12-08T09:40:37.132Z,0.00
2017-12-08T09:41:37.128Z,0.00
2017-12-08T09:42:37.141Z,0.00
2017-12-08T09:43:37.117Z,0.00
2017-12-08T09:44:37.132Z,0.00
2017-12-08T09:45:37.167Z,0.00
2017-12-08T09:46:37.122Z,0.00
2017-12-08T09:47:37.098Z,0.00
2017-12-08T09:48:37.105Z,0.00
2017-12-08T09:49:37.103Z,0.00
2017-12-08T09:50:37.102Z,0.00
2017-12-08T09:51:37.083Z,5.63
2017-12-08T09:52:37.074Z,5.63
2017-12-08T09:53:37.085Z,5.63
2017-12-08T09:54:37.074Z,5.63
2017-12-08T09:55:37.055Z,5.63
2017-12-08T09:56:37.075Z,5.63
2017-12-08T09:57:37.050Z,5.63
2017-12-08T09:58:37.056Z,5.63
2017-12-08T09:59:37.051Z,5.63
2017-12-08T10:00:37.031Z,5.63
2017-12-08T10:01:37.047Z,5.63
2017-12-08T10:02:37.030Z,5.63
2017-12-08T10:03:37.038Z,5.63
2017-12-08T10:04:37.037Z,5.63
2017-12-08T10:05:37.012Z,5.63
2017-12-08T10:06:37.018Z,5.63
2017-12-08T10:07:37.023Z,5.63
2017-12-08T10:08:37.019Z,5.63
2017-12-08T10:09:36.994Z,5.63
2017-12-08T10:10:37.005Z,5.63
2017-12-08T10:11:36.985Z,5.63
2017-12-08T10:12:36.981Z,5.63
2017-12-08T10:13:36.992Z,5.63
2017-12-08T10:14:36.993Z,11.25
2017-12-08T10:15:36.961Z,5.63
2017-12-08T10:16:36.966Z,11.25
2017-12-08T10:17:36.952Z,11.25
2017-12-08T10:18:36.969Z,11.25
2017-12-08T10:19:36.958Z,11.25
2017-12-08T10:20:36.960Z,11.25
2017-12-08T10:21:36.938Z,11.25
2017-12-08T10:22:36.938Z,11.25
2017-12-08T10:23:36.940Z,11.25
2017-12-08T10:24:36.936Z,11.25
2017-12-08T10:25:37.037Z,11.25
2017-12-08T10:26:36.936Z,11.25
2017-12-08T10:27:36.906Z,11.25
2017-12-08T10:28:36.908Z,11.25
2017-12-08T10:29:36.914Z,11.25
2017-12-08T10:30:36.918Z,11.25
2017-12-08T10:31:36.910Z,11.25
2017-12-08T10:32:36.890Z,11.25
2017-12-08T10:33:36.890Z,11.25
2017-12-08T10:34:36.897Z,11.25
2017-12-08T10:35:36.876Z,11.25
2017-12-08T10:36:36.876Z,11.25
2017-12-08T10:37:36.870Z,11.25
2017-12-08T10:38:36.866Z,11.25
2017-12-08T10:39:36.878Z,5.63
2017-12-08T10:40:36.874Z,5.63
2017-12-08T10:41:36.850Z,5.63
2017-12-08T10:42:36.840Z,5.63
2017-12-08T10:43:36.842Z,5.63
2017-12-08T10:44:36.842Z,5.63
2017-12-08T10:45:36.833Z,5.63
2017-12-08T10:46:36.831Z,5.63
2017-12-08T10:47:36.824Z,5.63
2017-12-08T10:48:36.821Z,5.63
2017-12-08T10:49:36.822Z,5.63
2017-12-08T10:50:36.815Z,5.63
2017-12-08T10:51:36.807Z,5.63
2017-12-08T10:52:36.808Z,5.63
2017-12-08T10:53:36.798Z,5.63
2017-12-08T10:54:36.793Z,5.63
2017-12-08T10:55:36.794Z,5.63
2017-12-08T10:56:36.790Z,5.63
2017-12-08T10:57:36.780Z,5.63
2017-12-08T10:58:36.840Z,11.25
2017-12-08T10:59:36.784Z,11.25
2017-12-08T11:00:36.768Z,11.25
2017-12-08T11:01:36.781Z,11.25
2017-12-08T11:02:36.777Z,11.25
2017-12-08T11:03:36.758Z,11.25
2017-12-08T11:04:36.787Z,11.25
2017-12-08T11:05:36.760Z,11.25
2017-12-08T11:06:36.740Z,5.63
2017-12-08T11:07:36.739Z,5.63
2017-12-08T11:08:36.727Z,5.63
2017-12-08T11:09:36.742Z,11.25
2017-12-08T11:10:36.737Z,11.25
2017-12-08T11:11:36.718Z,11.25
2017-12-08T11:12:36.730Z,16.88
2017-12-08T11:13:36.709Z,16.88
2017-12-08T11:14:36.704Z,16.88
2017-12-08T11:15:36.695Z,16.88
2017-12-08T11:16:36.696Z,16.88
2017-12-08T11:17:36.691Z,16.88
2017-12-08T11:18:36.702Z,16.88
2017-12-08T11:19:36.678Z,16.88
2017-12-08T11:20:36.678Z,11.25
2017-12-08T11:21:36.688Z,11.25
2017-12-08T11:22:36.669Z,11.25
2017-12-08T11:23:36.664Z,11.25
2017-12-08T11:24:36.677Z,16.88
2017-12-08T11:25:36.666Z,16.88
2017-12-08T11:26:36.661Z,16.88
2017-12-08T11:27:36.662Z,16.88
2017-12-08T11:28:36.658Z,16.88
2017-12-08T11:29:36.638Z,16.88
2017-12-08T11:30:36.635Z,22.50
2017-12-08T11:31:36.644Z,22.50
2017-12-08T11:32:36.641Z,16.88
2017-12-08T11:33:36.621Z,16.88
2017-12-08T11:34:36.633Z,16.88
2017-12-08T11:35:36.628Z,16.88
2017-12-08T11:36:36.604Z,16.88
2017-12-08T11:37:36.619Z,16.88
2017-12-08T11:38:36.600Z,16.88
2017-12-08T11:39:36.596Z,16.88
2017-12-08T11:40:36.592Z,16.88
2017-12-08T11:41:36.597Z,16.88
2017-12-08T11:42:36.603Z,22.50
2017-12-08T11:43:36.592Z,22.50
2017-12-08T11:44:36.592Z,28.13
2017-12-08T11:45:36.590Z,39.38
2017-12-08T11:46:36.582Z,45.00
2017-12-08T11:47:36.564Z,45.00
2017-12-08T11:48:36.569Z,39.38
2017-12-08T11:49:36.575Z,33.75
2017-12-08T11:50:36.566Z,28.13
2017-12-08T11:51:36.552Z,22.50
2017-12-08T11:52:36.544Z,22.50
2017-12-08T11:53:36.555Z,22.50
2017-12-08T11:54:36.536Z,22.50
2017-12-08T11:55:36.543Z,16.88
2017-12-08T11:56:36.540Z,22.50
2017-12-08T11:57:36.536Z,22.50
2017-12-08T11:58:36.526Z,22.50
2017-12-08T11:59:36.539Z,22.50
2017-12-08T12:00:36.560Z,22.50
2017-12-08T12:01:36.512Z,22.50
2017-12-08T12:02:36.503Z,22.50
2017-12-08T12:03:36.515Z,22.50
2017-12-08T12:04:36.497Z,28.13
2017-12-08T12:05:36.509Z,28.13
2017-12-08T12:06:36.495Z,28.13
2017-12-08T12:07:36.507Z,28.13
2017-12-08T12:08:36.504Z,22.50
2017-12-08T12:09:36.498Z,22.50
2017-12-08T12:10:36.486Z,22.50
2017-12-08T12:11:36.483Z,16.88
2017-12-08T12:12:36.491Z,16.88
2017-12-08T12:13:36.487Z,16.88
2017-12-08T12:14:36.487Z,16.88
2017-12-08T12:15:36.482Z,16.88
2017-12-08T12:16:36.478Z,16.88
2017-12-08T12:17:36.474Z,16.88
2017-12-08T12:18:36.472Z,16.88
2017-12-08T12:19:36.469Z,16.88
2017-12-08T12:20:36.465Z,22.50
2017-12-08T12:21:36.448Z,22.50
2017-12-08T12:22:36.458Z,28.13
2017-12-08T12:23:36.459Z,22.50
2017-12-08T12:24:36.437Z,22.50
2017-12-08T12:25:36.427Z,22.50
2017-12-08T12:26:36.434Z,22.50
2017-12-08T12:27:36.426Z,22.50
2017-12-08T12:28:36.439Z,22.50
2017-12-08T12:29:36.419Z,22.50
2017-12-08T12:30:36.416Z,22.50
2017-12-08T12:31:36.433Z,28.13
2017-12-08T12:32:36.414Z,22.50
2017-12-08T12:33:36.426Z,22.50
2017-12-08T12:34:36.419Z,28.13
2017-12-08T12:35:36.400Z,28.13
2017-12-08T12:36:36.413Z,28.13
2017-12-08T12:37:36.393Z,28.13
2017-12-08T12:38:36.390Z,28.13
2017-12-08T12:39:36.407Z,28.13
2017-12-08T12:40:36.387Z,33.75
2017-12-08T12:41:36.374Z,33.75
2017-12-08T12:42:36.385Z,33.75
2017-12-08T12:43:36.377Z,39.38
2017-12-08T12:44:36.386Z,39.38
2017-12-08T12:45:36.369Z,39.38
2017-12-08T12:46:36.362Z,39.38
2017-12-08T12:47:36.374Z,39.38
2017-12-08T12:48:36.356Z,39.38
2017-12-08T12:49:36.367Z,45.00
2017-12-08T12:50:36.357Z,45.00
2017-12-08T12:51:36.361Z,56.25
2017-12-08T12:52:36.347Z,50.63
2017-12-08T12:53:36.358Z,45.00
2017-12-08T12:54:36.337Z,39.38
2017-12-08T12:55:36.349Z,39.38
2017-12-08T12:56:36.331Z,33.75
2017-12-08T12:57:36.344Z,33.75
2017-12-08T12:58:36.325Z,28.13
2017-12-08T12:59:36.323Z,28.13
2017-12-08T13:00:36.321Z,28.13
2017-12-08T13:01:36.336Z,28.13
2017-12-08T13:02:36.314Z,33.75
2017-12-08T13:03:36.306Z,33.75
2017-12-08T13:04:36.309Z,39.38
2017-12-08T13:05:36.301Z,39.38
2017-12-08T13:06:36.319Z,39.38
2017-12-08T13:07:36.305Z,39.38
2017-12-08T13:08:36.314Z,39.38
2017-12-08T13:09:36.315Z,39.38
2017-12-08T13:10:36.330Z,45.00
2017-12-08T13:11:36.307Z,45.00
2017-12-08T13:12:36.301Z,61.88
2017-12-08T13:13:36.286Z,56.25
2017-12-08T13:14:36.288Z,45.00